Terminal Aerodrome Forecast
Issued by NWS Atlanta, GA

Home | Current Version | Previous Version | Text Only | Print | Product List | Glossary On
Versions: 1 2 3 4 5 6 7 8 9 10 11 12 13 14 15 16 17 18 19 20 21 22 23 24 25 26 27 28
000
FTUS42 KFFC 271130
TAFAHN
TAF
KAHN 271130Z 2712/2812 VRB03KT P6SM VCSH BKN070
     FM271500 15007KT P6SM BKN050
     FM272300 13005KT P6SM FEW050 SCT250
      TEMPO 2809/2812 4SM BR=

USA.gov is the U.S. government's official web portal to all federal, state and local government web resources and services.